Jacksonville, IL

11:19 AM CDT on July 26, 2014 (GMT -0500)
Book Lane (KILJACKS2) Elev 663 ft | 39.73 °N, 90.26 °W | Change Station

Current weather conditions updated 4 seconds ago

Clear
Clear
83.5 °F
Feels Like 92 °F
N
4.9
Wind Variable Wind from SW
Gusts 9.0 mph

Today is forecast to be Much Warmer than yesterday. Scattered thunderstorms tonight.

Today
High -- | Low -- °F
--% Chance of Precip.
Yesterday
High -- | Low -- °F
Precip. -- in
5:54 AM 8:19 PM
Waning Crescent, 0% visible
Pressure 29.85 in
Visibility 10.0 miles
Clouds Clear
Heat Index 92 °F
Dew Point 76 °F
Humidity 77%
Rainfall 0.00 in
Snow Depth Not available.
UV 9 out of 12
Pollen 6.70 out of 12
Ozone Good
PM2.5 Moderate
Flu Activity Not available.
METAR KIJX 261555Z AUTO 23010KT 10SM CLR 29/24 A2985 RMK AO2 T02880243

More Conditions Fewer Conditions

Pressure 29.85 in
Visibility 10.0 miles
Clouds Clear
Heat Index 92 °F
Dew Point 76 °F
Humidity 77%
Rainfall 0.00 in
Snow Depth Not available.
UV 9 out of 12
Pollen 6.70 out of 12
Ozone Good
PM2.5 Moderate
Flu Activity Not available.
METAR KIJX 261555Z AUTO 23010KT 10SM CLR 29/24 A2985 RMK AO2 T02880243

More Conditions Fewer Conditions

10-Day Weather Forecast

Almanac

Astronomy

Jul. 26, 2014 Rise Set
Actual Time 5:54 AM CDT 8:19 PM CDT
Civil Twilight 5:23 AM CDT 8:50 PM CDT
Nautical Twilight 4:45 AM CDT 9:28 PM CDT
Astronomical Twilight 4:03 AM CDT 10:10 PM CDT
Moon 5:47 AM CDT 7:55 PM CDT
Length of Visible Light 15h 26m
Length of Day
14h 25m
Tomorrow will be 1m 47s shorter.
Waning Crescent, 0% of the Moon is Illuminated
Today
Waning Crescent
Jul 26
New
Aug 3
First Quarter
Aug 10
Full
Aug 17
Last Quarter

Today's Extremes

State Highs State Lows

Community

WunderPhotos

Upload Photos

1,737,625 photos uploaded!

Nearby

Air Quality

  Air Quality AQ Index Pollutant
Yesterday Good
PM2.5
Yesterday Good
OZONE
Current Moderate
PM2.5
Current Good
OZONE
Saturday Good
PM2.5
Saturday Good
OZONE
Sunday Good
PM2.5
Sunday Good
OZONE
Monday Good
PM2.5
Monday Good
OZONE
Tuesday Good
PM2.5
Tuesday Good
OZONE

Snow Depth

Station Depth Elevation
No new snow has been reported.

Earthquake Activity

City Distance Mag. Time & Date
No recent earthquake activity has been reported nearby.
Minimum magnitude displayed is 2.5.

Coastal Water Temperatures

Place Temperature
No Stations Reporting

Nearby Weather Stations

Station Location Temp. Heat Index Dew Point Humidity Wind Precip. Elev Updated Type
Book Lane, Jacksonville, IL 83.5 °F 92 °F 76 °F 77% SW  at  4.9 mph - / hr 663 ft 11:19 AM CDT Rapid Fire
Weather Station 62694, Winchester, IL 86.0 °F 97 °F 77 °F 75% SW  at  3.8 mph 0.00 in / hr 548 ft 11:19 AM CDT Rapid Fire
Smith Farms, New Berlin, IL 85.1 °F 93 °F 75 °F 71% WSW  at  5.8 mph - / hr 656 ft 11:15 AM CDT Normal
HADS ILLINOIS RIVER AT VALLEY CITY IL, Griggsville, IL 83 °F 81 °F - - North  at  - 0.00 in / hr 416 ft 10:00 AM CDT MADIS

Show More Stations Show Fewer Stations